createdAt,value
2018-07-26T00:04:21.609Z,3.27
2018-07-26T00:09:26.489Z,3.53
2018-07-26T00:14:31.233Z,3.60
2018-07-26T00:19:35.992Z,3.60
2018-07-26T00:24:40.790Z,3.33
2018-07-26T00:29:45.510Z,3.70
2018-07-26T00:34:50.287Z,3.47
2018-07-26T00:39:54.992Z,3.50
2018-07-26T00:44:59.762Z,4.23
2018-07-26T00:50:04.544Z,3.73
2018-07-26T00:55:09.377Z,4.13
2018-07-26T01:00:14.154Z,4.03
2018-07-26T01:05:18.927Z,3.40
2018-07-26T01:10:23.668Z,3.73
2018-07-26T01:15:28.374Z,4.00
2018-07-26T01:20:33.099Z,3.80
2018-07-26T01:25:37.931Z,3.70
2018-07-26T01:30:42.700Z,3.37
2018-07-26T01:35:47.517Z,3.97
2018-07-26T01:40:52.231Z,4.17
2018-07-26T01:45:56.929Z,4.10
2018-07-26T01:51:01.660Z,4.20
2018-07-26T01:56:07.203Z,3.93
2018-07-26T02:01:12.884Z,4.03
2018-07-26T02:06:17.652Z,4.40
2018-07-26T02:11:22.583Z,4.13
2018-07-26T02:16:27.526Z,4.47
2018-07-26T02:21:32.684Z,4.00
2018-07-26T02:26:37.425Z,4.57
2018-07-26T02:31:42.226Z,4.20
2018-07-26T02:36:47.030Z,4.53
2018-07-26T02:41:51.686Z,4.50
2018-07-26T02:46:56.427Z,4.67
2018-07-26T02:52:01.066Z,4.07
2018-07-26T02:57:05.910Z,4.40
2018-07-26T03:02:10.798Z,4.87
2018-07-26T03:07:15.522Z,5.33
2018-07-26T03:12:20.284Z,5.27
2018-07-26T03:17:25.012Z,5.20
2018-07-26T03:22:29.771Z,5.30
2018-07-26T03:27:34.578Z,5.40
2018-07-26T03:32:39.286Z,4.77
2018-07-26T03:37:44.026Z,5.70
2018-07-26T03:42:48.910Z,5.23
2018-07-26T03:47:53.610Z,5.10
2018-07-26T03:52:58.391Z,4.90
2018-07-26T03:58:03.399Z,5.50
2018-07-26T04:03:08.192Z,5.40
2018-07-26T04:08:12.964Z,5.43
2018-07-26T04:13:17.757Z,5.30
2018-07-26T04:18:22.490Z,5.00
2018-07-26T04:23:27.281Z,4.90
2018-07-26T04:28:31.941Z,4.60
2018-07-26T04:33:36.669Z,4.93
2018-07-26T04:38:41.444Z,5.00
2018-07-26T04:43:46.282Z,4.40
2018-07-26T04:48:51.170Z,4.37
2018-07-26T04:53:56.124Z,4.40
2018-07-26T04:59:00.857Z,3.93
2018-07-26T05:04:05.561Z,4.17
2018-07-26T05:09:11.964Z,4.07
2018-07-26T05:14:16.831Z,3.97
2018-07-26T05:19:21.594Z,3.73
2018-07-26T05:24:26.356Z,4.13
2018-07-26T05:29:31.091Z,4.30
2018-07-26T05:34:35.943Z,4.23
2018-07-26T05:39:40.812Z,4.17
2018-07-26T05:44:45.585Z,4.37
2018-07-26T05:49:50.293Z,4.73
2018-07-26T05:54:54.991Z,4.70
2018-07-26T05:59:59.842Z,3.97
2018-07-26T06:05:04.874Z,3.80
2018-07-26T06:10:10.266Z,4.93
2018-07-26T06:15:15.120Z,4.73
2018-07-26T06:20:19.884Z,4.23
2018-07-26T06:25:24.608Z,3.80
2018-07-26T06:30:29.293Z,3.90
2018-07-26T06:35:34.185Z,4.70
2018-07-26T06:40:38.920Z,4.20
2018-07-26T06:45:43.603Z,4.10
2018-07-26T06:50:48.351Z,4.37
2018-07-26T06:55:53.053Z,4.70
2018-07-26T07:00:57.866Z,5.07
2018-07-26T07:06:02.645Z,4.50
2018-07-26T07:11:07.354Z,4.57
2018-07-26T07:16:12.482Z,4.23
2018-07-26T07:21:17.800Z,4.60
2018-07-26T07:26:22.507Z,4.50
2018-07-26T07:31:27.438Z,4.73
2018-07-26T07:36:32.166Z,4.57
2018-07-26T07:41:37.083Z,3.63
2018-07-26T07:46:41.876Z,3.90
2018-07-26T07:51:46.662Z,4.30
2018-07-26T07:56:51.462Z,3.30
2018-07-26T08:01:56.272Z,3.37
2018-07-26T08:07:01.037Z,3.00
2018-07-26T08:12:05.798Z,3.10
2018-07-26T08:17:10.792Z,3.07
2018-07-26T08:22:15.646Z,3.13
2018-07-26T08:27:20.399Z,3.40
2018-07-26T08:32:25.202Z,3.17
2018-07-26T08:37:29.972Z,3.33
2018-07-26T08:42:34.732Z,3.23
2018-07-26T08:47:39.483Z,3.17
2018-07-26T08:52:44.208Z,3.00
2018-07-26T08:57:48.990Z,2.53
2018-07-26T09:02:53.761Z,2.00
2018-07-26T09:07:58.571Z,2.10
2018-07-26T09:13:03.373Z,2.30
2018-07-26T09:18:08.184Z,2.37
2018-07-26T09:23:13.027Z,2.30
2018-07-26T09:28:17.769Z,2.20
2018-07-26T09:33:22.573Z,2.00
2018-07-26T09:38:27.295Z,2.17
2018-07-26T09:43:32.089Z,2.40
2018-07-26T09:48:37.131Z,2.13
2018-07-26T09:53:41.894Z,1.87
2018-07-26T09:58:46.654Z,2.27
2018-07-26T10:03:51.345Z,2.70
2018-07-26T10:08:56.130Z,2.03
2018-07-26T10:14:00.897Z,2.30
2018-07-26T10:19:05.810Z,2.17
2018-07-26T10:24:10.558Z,2.30
2018-07-26T10:29:15.306Z,2.50
2018-07-26T10:34:20.043Z,2.00
2018-07-26T10:39:24.946Z,2.20
2018-07-26T10:44:29.681Z,2.27
2018-07-26T10:49:34.416Z,2.10
2018-07-26T10:54:39.157Z,2.10
2018-07-26T10:59:43.974Z,2.30
2018-07-26T11:04:48.668Z,2.10
2018-07-26T11:09:53.462Z,2.33
2018-07-26T11:15:18.669Z,2.00
2018-07-26T11:20:23.585Z,2.27
2018-07-26T11:25:28.372Z,2.17
2018-07-26T11:30:33.137Z,2.40
2018-07-26T11:35:37.886Z,2.47
2018-07-26T11:40:42.659Z,2.40
2018-07-26T11:45:47.374Z,2.20
2018-07-26T11:50:52.068Z,2.17
2018-07-26T11:55:56.781Z,1.90
2018-07-26T12:01:01.442Z,2.30
2018-07-26T12:06:06.210Z,2.27
2018-07-26T12:11:11.023Z,2.20
2018-07-26T12:16:15.885Z,2.00
2018-07-26T12:21:20.611Z,1.90
2018-07-26T12:26:25.359Z,1.80
2018-07-26T12:31:30.252Z,1.90
2018-07-26T12:36:34.980Z,2.00
2018-07-26T12:41:39.914Z,2.20
2018-07-26T12:46:44.617Z,2.37
2018-07-26T12:51:49.312Z,2.03
2018-07-26T12:56:53.989Z,2.20
2018-07-26T13:01:58.754Z,2.00
2018-07-26T13:07:04.469Z,1.77
2018-07-26T13:12:09.372Z,2.20
2018-07-26T13:17:14.351Z,2.02
2018-07-26T13:22:19.117Z,1.80
2018-07-26T13:27:24.000Z,2.00
2018-07-26T13:32:28.704Z,1.80
2018-07-26T13:37:33.394Z,2.17
2018-07-26T13:42:38.158Z,2.17
2018-07-26T13:47:43.039Z,1.85
2018-07-26T13:52:48.500Z,1.80
2018-07-26T13:57:53.387Z,2.02
2018-07-26T14:02:58.143Z,2.00
2018-07-26T14:08:02.604Z,2.50
2018-07-26T14:13:07.333Z,2.10
2018-07-26T14:18:12.002Z,1.85
2018-07-26T14:23:22.018Z,2.30
2018-07-26T14:28:26.700Z,2.25
2018-07-26T14:33:31.750Z,2.30
2018-07-26T14:38:36.561Z,2.45
2018-07-26T14:43:41.241Z,1.80
2018-07-26T14:48:45.976Z,2.27
2018-07-26T14:53:50.746Z,2.02
2018-07-26T14:58:55.558Z,2.13
2018-07-26T15:04:00.666Z,2.00
2018-07-26T15:09:08.684Z,2.10
2018-07-26T15:14:13.536Z,2.30
2018-07-26T15:19:18.254Z,2.20
2018-07-26T15:24:23.094Z,2.13
2018-07-26T15:29:27.860Z,2.30
2018-07-26T15:34:32.780Z,2.60
2018-07-26T15:39:37.491Z,2.67
2018-07-26T15:44:42.357Z,2.98
2018-07-26T15:49:47.043Z,2.90
2018-07-26T15:54:51.842Z,2.67
2018-07-26T15:59:56.630Z,2.47
2018-07-26T16:05:01.320Z,2.87
2018-07-26T16:10:06.404Z,2.57
2018-07-26T16:15:14.134Z,2.10
2018-07-26T16:20:18.919Z,2.63
2018-07-26T16:25:24.971Z,2.57
2018-07-26T16:30:29.810Z,3.00
2018-07-26T16:35:34.790Z,2.60
2018-07-26T16:40:39.578Z,2.50
2018-07-26T16:45:44.429Z,2.30
2018-07-26T16:50:50.073Z,2.45
2018-07-26T16:55:54.825Z,2.62
2018-07-26T17:00:59.555Z,2.25
2018-07-26T17:06:04.601Z,2.72
2018-07-26T17:11:10.051Z,3.20
2018-07-26T17:16:15.293Z,2.72
2018-07-26T17:21:20.083Z,2.87
2018-07-26T17:26:24.926Z,2.60
2018-07-26T17:31:29.708Z,3.10
2018-07-26T17:36:34.493Z,2.95
2018-07-26T17:41:39.341Z,3.10
2018-07-26T17:46:44.163Z,3.07
2018-07-26T17:51:48.906Z,2.80
2018-07-26T17:56:54.727Z,3.30
2018-07-26T18:01:59.547Z,3.20
2018-07-26T18:07:04.434Z,3.47
2018-07-26T18:12:09.170Z,3.10
2018-07-26T18:17:14.033Z,3.40
2018-07-26T18:22:18.843Z,3.60
2018-07-26T18:27:23.653Z,3.40
2018-07-26T18:32:28.531Z,3.30
2018-07-26T18:37:33.390Z,3.47
2018-07-26T18:42:38.292Z,3.40
2018-07-26T18:47:43.065Z,3.70
2018-07-26T18:52:47.897Z,3.43
2018-07-26T18:57:52.630Z,3.47
2018-07-26T19:02:57.477Z,3.60
2018-07-26T19:08:02.201Z,3.87
2018-07-26T19:13:06.910Z,3.63
2018-07-26T19:18:11.943Z,3.73
2018-07-26T19:23:16.856Z,3.40
2018-07-26T19:28:22.208Z,3.63
2018-07-26T19:33:27.001Z,3.20
2018-07-26T19:38:32.010Z,3.80
2018-07-26T19:43:36.818Z,3.90
2018-07-26T19:48:42.723Z,3.90
2018-07-26T19:53:47.674Z,3.87
2018-07-26T19:58:52.667Z,3.90
2018-07-26T20:03:57.609Z,3.70
2018-07-26T20:09:02.507Z,3.70
2018-07-26T20:14:08.334Z,4.20
2018-07-26T20:19:13.180Z,3.70
2018-07-26T20:24:17.922Z,4.23
2018-07-26T20:29:22.718Z,4.47
2018-07-26T20:34:27.577Z,4.17
2018-07-26T20:39:32.449Z,3.97
2018-07-26T20:44:37.215Z,3.47
2018-07-26T20:49:42.161Z,4.23
2018-07-26T20:54:46.919Z,3.83
2018-07-26T20:59:51.724Z,4.33
2018-07-26T21:04:56.481Z,4.20
2018-07-26T21:10:01.868Z,4.30
2018-07-26T21:15:08.577Z,4.27
2018-07-26T21:20:13.414Z,5.27
2018-07-26T21:25:18.102Z,4.50
2018-07-26T21:30:22.995Z,4.53
2018-07-26T21:35:27.772Z,4.50
2018-07-26T21:40:33.564Z,4.30
2018-07-26T21:45:38.384Z,4.50
2018-07-26T21:50:43.198Z,4.27
2018-07-26T21:55:47.949Z,4.20
2018-07-26T22:00:59.493Z,4.67
2018-07-26T22:06:05.063Z,4.67
2018-07-26T22:11:09.819Z,3.80
2018-07-26T22:16:14.654Z,4.47
2018-07-26T22:21:19.499Z,4.50
2018-07-26T22:26:24.252Z,4.33
2018-07-26T22:31:29.287Z,4.40
2018-07-26T22:36:34.318Z,4.70
2018-07-26T22:41:39.109Z,4.53
2018-07-26T22:46:43.759Z,3.90
2018-07-26T22:51:48.610Z,4.27
2018-07-26T22:56:53.336Z,4.50
2018-07-26T23:01:58.241Z,4.60
2018-07-26T23:07:06.430Z,3.83
2018-07-26T23:12:11.156Z,4.83
2018-07-26T23:17:15.934Z,4.47
2018-07-26T23:22:20.698Z,4.27
2018-07-26T23:27:25.456Z,4.67
2018-07-26T23:32:30.205Z,4.47
2018-07-26T23:37:35.055Z,4.83
2018-07-26T23:42:40.386Z,4.70
2018-07-26T23:47:45.179Z,4.70
2018-07-26T23:52:49.955Z,4.40
2018-07-26T23:57:54.792Z,4.00
